EDW7358 LGKO-LGRP
Flight info
| Callsign | EDW7358 |
|---|---|
| Flight time | 0h 25m |
| Altitude | 15000 |
| Route | KOPAR UL995 CODIC |
| Aircraft | A320/M-SDE2E3FGHIJ1RWXY/LB1 |
Departure
| Time | 2026-04-28 04:48 |
|---|---|
| Airport | Kos International Airport "Ippokratis" (LGKO) |
Arrival
| Time | 2026-04-28 05:13 |
|---|---|
| Airport | Rhodes International Airport "Diagoras" (LGRP) |
| Time | Latitude | Longitude | Altitude | Speed | Heading |
|---|---|---|---|---|---|
| 2026-04-28 03:48 | 36.80178 | 27.08897 | 411 ft | 0 kts | 58° |
| 2026-04-28 04:39 | 36.80172 | 27.08884 | 410 ft | 4 kts | 58° |
| 2026-04-28 04:39 | 36.80161 | 27.08863 | 413 ft | 4 kts | 59° |
| 2026-04-28 04:39 | 36.80151 | 27.08835 | 410 ft | 4 kts | 85° |
| 2026-04-28 04:39 | 36.80155 | 27.08811 | 415 ft | 4 kts | 144° |
| 2026-04-28 04:40 | 36.80173 | 27.08796 | 412 ft | 1 kts | 148° |
| 2026-04-28 04:40 | 36.80174 | 27.08796 | 412 ft | 1 kts | 148° |
| 2026-04-28 04:42 | 36.80163 | 27.08804 | 409 ft | 4 kts | 148° |
| 2026-04-28 04:42 | 36.80133 | 27.08828 | 416 ft | 7 kts | 148° |
| 2026-04-28 04:42 | 36.80082 | 27.08867 | 416 ft | 10 kts | 147° |
| 2026-04-28 04:43 | 36.80013 | 27.08922 | 414 ft | 12 kts | 147° |
| 2026-04-28 04:43 | 36.79943 | 27.08972 | 419 ft | 11 kts | 161° |
| 2026-04-28 04:43 | 36.79866 | 27.08983 | 410 ft | 11 kts | 175° |
| 2026-04-28 04:43 | 36.79796 | 27.08986 | 416 ft | 10 kts | 179° |
| 2026-04-28 04:44 | 36.79724 | 27.08988 | 412 ft | 13 kts | 178° |
| 2026-04-28 04:44 | 36.79629 | 27.08994 | 418 ft | 14 kts | 171° |
| 2026-04-28 04:44 | 36.79526 | 27.09061 | 415 ft | 22 kts | 148° |
| 2026-04-28 04:44 | 36.79370 | 27.09184 | 414 ft | 28 kts | 148° |
| 2026-04-28 04:45 | 36.79198 | 27.09317 | 405 ft | 29 kts | 148° |
| 2026-04-28 04:45 | 36.79046 | 27.09434 | 399 ft | 20 kts | 148° |
| 2026-04-28 04:45 | 36.78929 | 27.09526 | 397 ft | 19 kts | 148° |
| 2026-04-28 04:45 | 36.78815 | 27.09615 | 394 ft | 20 kts | 148° |
| 2026-04-28 04:46 | 36.78700 | 27.09704 | 393 ft | 19 kts | 148° |
| 2026-04-28 04:46 | 36.78606 | 27.09762 | 391 ft | 9 kts | 175° |
| 2026-04-28 04:46 | 36.78547 | 27.09789 | 388 ft | 8 kts | 118° |
| 2026-04-28 04:46 | 36.78555 | 27.09812 | 388 ft | 1 kts | 19° |
| 2026-04-28 04:47 | 36.78566 | 27.09807 | 388 ft | 3 kts | 341° |
| 2026-04-28 04:47 | 36.78578 | 27.09798 | 389 ft | 0 kts | 327° |
| 2026-04-28 04:48 | 36.78691 | 27.09710 | 393 ft | 54 kts | 328° |
| 2026-04-28 04:48 | 36.79214 | 27.09303 | 406 ft | 120 kts | 328° |
| 2026-04-28 04:48 | 36.80053 | 27.08658 | 675 ft | 149 kts | 330° |
| 2026-04-28 04:48 | 36.80909 | 27.07946 | 1440 ft | 149 kts | 315° |
| 2026-04-28 04:49 | 36.81327 | 27.06729 | 2077 ft | 167 kts | 277° |
| 2026-04-28 04:49 | 36.80977 | 27.05236 | 2482 ft | 199 kts | 239° |
| 2026-04-28 04:49 | 36.80138 | 27.03731 | 2884 ft | 221 kts | 248° |
| 2026-04-28 04:49 | 36.79858 | 27.01851 | 3572 ft | 223 kts | 278° |
| 2026-04-28 04:50 | 36.80042 | 26.99887 | 4285 ft | 239 kts | 279° |
| 2026-04-28 04:50 | 36.80269 | 26.97730 | 4856 ft | 260 kts | 279° |
| 2026-04-28 04:50 | 36.80515 | 26.95457 | 5757 ft | 267 kts | 278° |
| 2026-04-28 04:50 | 36.80700 | 26.93135 | 6746 ft | 271 kts | 268° |
| 2026-04-28 04:51 | 36.80254 | 26.90835 | 7644 ft | 279 kts | 243° |
| 2026-04-28 04:51 | 36.79022 | 26.88950 | 8534 ft | 287 kts | 218° |
| 2026-04-28 04:51 | 36.77196 | 26.87918 | 9452 ft | 294 kts | 190° |
| 2026-04-28 04:51 | 36.75156 | 26.88042 | 10316 ft | 299 kts | 162° |
| 2026-04-28 04:52 | 36.73363 | 26.89345 | 11141 ft | 303 kts | 134° |
| 2026-04-28 04:52 | 36.72248 | 26.91557 | 11976 ft | 306 kts | 108° |
| 2026-04-28 04:52 | 36.71619 | 26.94194 | 12360 ft | 329 kts | 103° |
| 2026-04-28 04:52 | 36.71022 | 26.97048 | 12762 ft | 348 kts | 103° |
| 2026-04-28 04:53 | 36.70430 | 27.00010 | 13508 ft | 356 kts | 103° |
| 2026-04-28 04:53 | 36.69826 | 27.03017 | 14265 ft | 361 kts | 103° |
| 2026-04-28 04:53 | 36.69198 | 27.06071 | 14770 ft | 366 kts | 103° |
| 2026-04-28 04:53 | 36.68553 | 27.09146 | 14931 ft | 367 kts | 104° |
| 2026-04-28 04:54 | 36.67896 | 27.12228 | 14972 ft | 368 kts | 105° |
| 2026-04-28 04:54 | 36.66988 | 27.15207 | 14981 ft | 369 kts | 113° |
| 2026-04-28 04:54 | 36.65959 | 27.18130 | 14983 ft | 369 kts | 113° |
| 2026-04-28 04:54 | 36.64930 | 27.21058 | 14995 ft | 369 kts | 113° |
| 2026-04-28 04:55 | 36.63902 | 27.23983 | 14996 ft | 368 kts | 113° |
| 2026-04-28 04:55 | 36.62887 | 27.26863 | 14992 ft | 368 kts | 113° |
| 2026-04-28 04:55 | 36.61861 | 27.29783 | 14995 ft | 368 kts | 113° |
| 2026-04-28 04:55 | 36.60836 | 27.32704 | 14996 ft | 368 kts | 112° |
| 2026-04-28 04:56 | 36.59813 | 27.35629 | 14989 ft | 368 kts | 112° |
| 2026-04-28 04:56 | 36.58778 | 27.38588 | 14990 ft | 368 kts | 112° |
| 2026-04-28 04:56 | 36.57766 | 27.41473 | 14989 ft | 368 kts | 113° |
| 2026-04-28 04:56 | 36.56738 | 27.44389 | 14988 ft | 368 kts | 113° |
| 2026-04-28 04:57 | 36.55705 | 27.47308 | 14995 ft | 368 kts | 113° |
| 2026-04-28 04:57 | 36.54672 | 27.50221 | 14994 ft | 368 kts | 113° |
| 2026-04-28 04:57 | 36.53638 | 27.53134 | 14995 ft | 368 kts | 113° |
| 2026-04-28 04:57 | 36.52604 | 27.56051 | 14996 ft | 368 kts | 113° |
| 2026-04-28 04:58 | 36.51571 | 27.58967 | 14994 ft | 368 kts | 113° |
| 2026-04-28 04:58 | 36.50543 | 27.61881 | 14994 ft | 368 kts | 113° |
| 2026-04-28 04:58 | 36.49513 | 27.64794 | 14995 ft | 368 kts | 113° |
| 2026-04-28 04:58 | 36.48480 | 27.67710 | 14993 ft | 368 kts | 113° |
| 2026-04-28 04:59 | 36.47446 | 27.70620 | 14990 ft | 368 kts | 113° |
| 2026-04-28 04:59 | 36.46557 | 27.73601 | 14985 ft | 368 kts | 104° |
| 2026-04-28 04:59 | 36.46074 | 27.76712 | 14982 ft | 367 kts | 98° |
| 2026-04-28 04:59 | 36.45659 | 27.79840 | 14979 ft | 367 kts | 98° |
| 2026-04-28 05:00 | 36.45241 | 27.82973 | 14975 ft | 367 kts | 98° |
| 2026-04-28 05:00 | 36.44821 | 27.86102 | 14971 ft | 368 kts | 98° |
| 2026-04-28 05:00 | 36.44358 | 27.89227 | 14968 ft | 368 kts | 103° |
| 2026-04-28 05:00 | 36.43500 | 27.92220 | 14967 ft | 369 kts | 115° |
| 2026-04-28 05:01 | 36.42183 | 27.94949 | 14968 ft | 369 kts | 126° |
| 2026-04-28 05:01 | 36.40615 | 27.97480 | 14965 ft | 369 kts | 127° |
| 2026-04-28 05:01 | 36.39051 | 28.00007 | 14965 ft | 369 kts | 127° |
| 2026-04-28 05:01 | 36.37518 | 28.02492 | 14661 ft | 366 kts | 127° |
| 2026-04-28 05:02 | 36.35976 | 28.04992 | 14206 ft | 364 kts | 127° |
| 2026-04-28 05:02 | 36.34420 | 28.07513 | 13740 ft | 362 kts | 127° |
| 2026-04-28 05:02 | 36.32927 | 28.09960 | 13249 ft | 360 kts | 126° |
| 2026-04-28 05:02 | 36.31440 | 28.12488 | 12736 ft | 357 kts | 125° |
| 2026-04-28 05:03 | 36.30027 | 28.14944 | 12240 ft | 341 kts | 125° |
| 2026-04-28 05:03 | 36.28703 | 28.17260 | 11767 ft | 327 kts | 125° |
| 2026-04-28 05:03 | 36.27416 | 28.19512 | 11311 ft | 313 kts | 125° |
| 2026-04-28 05:03 | 36.26179 | 28.21665 | 10883 ft | 301 kts | 125° |
| 2026-04-28 05:04 | 36.24988 | 28.23729 | 10480 ft | 289 kts | 125° |
| 2026-04-28 05:04 | 36.23928 | 28.25779 | 10093 ft | 277 kts | 113° |
| 2026-04-28 05:04 | 36.23487 | 28.28028 | 9717 ft | 265 kts | 91° |
| 2026-04-28 05:04 | 36.23723 | 28.30255 | 9332 ft | 262 kts | 71° |
| 2026-04-28 05:05 | 36.24578 | 28.32226 | 8946 ft | 260 kts | 50° |
| 2026-04-28 05:05 | 36.25930 | 28.33685 | 8570 ft | 258 kts | 29° |
| 2026-04-28 05:05 | 36.27598 | 28.34469 | 8202 ft | 257 kts | 13° |
| 2026-04-28 05:05 | 36.29333 | 28.34969 | 7842 ft | 255 kts | 13° |
| 2026-04-28 05:06 | 36.31052 | 28.35472 | 7485 ft | 253 kts | 13° |
| 2026-04-28 05:06 | 36.32757 | 28.35975 | 7153 ft | 250 kts | 13° |
| 2026-04-28 05:06 | 36.34439 | 28.36475 | 6833 ft | 247 kts | 13° |
| 2026-04-28 05:06 | 36.36103 | 28.36970 | 6522 ft | 244 kts | 13° |
| 2026-04-28 05:07 | 36.37744 | 28.37459 | 6204 ft | 241 kts | 13° |
| 2026-04-28 05:07 | 36.39363 | 28.37938 | 5883 ft | 238 kts | 13° |
| 2026-04-28 05:07 | 36.40964 | 28.38410 | 5569 ft | 235 kts | 13° |
| 2026-04-28 05:07 | 36.42534 | 28.38816 | 5259 ft | 226 kts | 4° |
| 2026-04-28 05:08 | 36.44066 | 28.38668 | 4970 ft | 218 kts | 344° |
| 2026-04-28 05:08 | 36.45422 | 28.37923 | 4689 ft | 212 kts | 326° |
| 2026-04-28 05:08 | 36.46498 | 28.36692 | 4404 ft | 212 kts | 308° |
| 2026-04-28 05:08 | 36.47200 | 28.35082 | 4126 ft | 213 kts | 289° |
| 2026-04-28 05:09 | 36.47444 | 28.33275 | 3846 ft | 214 kts | 270° |
| 2026-04-28 05:09 | 36.47205 | 28.31457 | 3551 ft | 215 kts | 253° |
| 2026-04-28 05:09 | 36.46699 | 28.29704 | 3245 ft | 216 kts | 251° |
| 2026-04-28 05:09 | 36.46178 | 28.27959 | 2938 ft | 214 kts | 251° |
| 2026-04-28 05:10 | 36.45674 | 28.26237 | 2684 ft | 208 kts | 251° |
| 2026-04-28 05:10 | 36.45197 | 28.24601 | 2413 ft | 196 kts | 251° |
| 2026-04-28 05:10 | 36.44747 | 28.23054 | 2147 ft | 185 kts | 251° |
| 2026-04-28 05:10 | 36.44313 | 28.21563 | 1902 ft | 183 kts | 251° |
| 2026-04-28 05:11 | 36.43887 | 28.20100 | 1678 ft | 176 kts | 252° |
| 2026-04-28 05:11 | 36.43481 | 28.18715 | 1421 ft | 167 kts | 252° |
| 2026-04-28 05:11 | 36.43100 | 28.17401 | 1191 ft | 156 kts | 252° |
| 2026-04-28 05:11 | 36.42750 | 28.16184 | 974 ft | 145 kts | 252° |
| 2026-04-28 05:12 | 36.42416 | 28.15025 | 796 ft | 141 kts | 251° |
| 2026-04-28 05:12 | 36.42081 | 28.13890 | 647 ft | 140 kts | 251° |
| 2026-04-28 05:12 | 36.41750 | 28.12760 | 499 ft | 139 kts | 251° |
| 2026-04-28 05:12 | 36.41421 | 28.11644 | 296 ft | 136 kts | 250° |
| 2026-04-28 05:13 | 36.41100 | 28.10540 | 102 ft | 136 kts | 249° |
| 2026-04-28 05:13 | 36.40792 | 28.09481 | 32 ft | 117 kts | 250° |
| 2026-04-28 05:13 | 36.40569 | 28.08723 | 29 ft | 69 kts | 250° |
| 2026-04-28 05:13 | 36.40448 | 28.08312 | 28 ft | 43 kts | 250° |
| 2026-04-28 05:14 | 36.40383 | 28.08089 | 28 ft | 40 kts | 250° |
| 2026-04-28 05:14 | 36.40293 | 28.07786 | 28 ft | 35 kts | 250° |
| 2026-04-28 05:14 | 36.40236 | 28.07592 | 27 ft | 7 kts | 239° |
| 2026-04-28 05:14 | 36.40199 | 28.07591 | 27 ft | 5 kts | 158° |
| 2026-04-28 05:15 | 36.40165 | 28.07607 | 27 ft | 10 kts | 158° |
| 2026-04-28 05:15 | 36.40084 | 28.07666 | 28 ft | 9 kts | 112° |
| 2026-04-28 05:15 | 36.40092 | 28.07719 | 28 ft | 10 kts | 70° |
| 2026-04-28 05:15 | 36.40126 | 28.07835 | 28 ft | 12 kts | 70° |
| 2026-04-28 05:16 | 36.40148 | 28.07908 | 28 ft | 14 kts | 70° |
| 2026-04-28 05:16 | 36.40185 | 28.08037 | 28 ft | 18 kts | 70° |
| 2026-04-28 05:16 | 36.40229 | 28.08189 | 29 ft | 18 kts | 70° |
| 2026-04-28 05:17 | 36.40309 | 28.08458 | 28 ft | 15 kts | 70° |
| 2026-04-28 05:17 | 36.40344 | 28.08578 | 28 ft | 14 kts | 70° |
| 2026-04-28 05:17 | 36.40362 | 28.08639 | 28 ft | 5 kts | 70° |
| 2026-04-28 05:17 | 36.40373 | 28.08677 | 28 ft | 4 kts | 70° |
| 2026-04-28 05:18 | 36.40387 | 28.08722 | 28 ft | 6 kts | 70° |
| 2026-04-28 05:18 | 36.40400 | 28.08791 | 28 ft | 10 kts | 82° |
| 2026-04-28 05:18 | 36.40398 | 28.08890 | 28 ft | 13 kts | 95° |
| 2026-04-28 05:18 | 36.40402 | 28.09002 | 28 ft | 9 kts | 79° |
| 2026-04-28 05:19 | 36.40413 | 28.09047 | 28 ft | 5 kts | 71° |
| 2026-04-28 05:19 | 36.40395 | 28.09071 | 28 ft | 4 kts | 161° |
| 2026-04-28 05:19 | 36.40369 | 28.09083 | 28 ft | 4 kts | 160° |
| 2026-04-28 05:19 | 36.40352 | 28.09090 | 28 ft | 0 kts | 160° |